Time;durP1;ratioP1;P1;durP2;ratioP2;P2;SDS_P1;SDS_P2;PMS_P1;PMS_P2;Temp;Humidity;BMP_temperature;BMP_pressure;BME280_temperature;BME280_humidity;BME280_pressure;Samples;Min_cycle;Max_cycle;Signal;HPM_P1;HPM_P2
2022/11/04 00:01:21;;;;;;;0.10;0.10;;;;;;;9.48;100.00;100029.94;4998125;28;20124;-77
2022/11/04 00:03:46;;;;;;;0.10;0.10;;;;;;;9.43;100.00;100028.50;5007447;28;20110;-77
2022/11/04 00:06:12;;;;;;;0.05;0.05;;;;;;;9.41;100.00;100030.44;5010182;28;20080;-76
2022/11/04 00:08:37;;;;;;;0.10;0.10;;;;;;;9.34;100.00;100044.50;4991233;28;20109;-74
2022/11/04 00:13:46;;;;;;;0.10;0.10;;;;;;;9.09;100.00;100046.59;5002635;28;20064;-78
2022/11/04 00:18:59;;;;;;;0.10;0.10;;;;;;;9.24;100.00;100079.28;5002769;28;20402;-77
2022/11/04 00:29:38;;;;;;;0.10;0.10;;;;;;;8.69;100.00;100066.84;5007845;28;20091;-78
2022/11/04 00:34:47;;;;;;;0.05;0.05;;;;;;;8.57;100.00;100076.72;4993322;28;20513;-78
2022/11/04 00:37:12;;;;;;;0.00;0.00;;;;;;;8.51;100.00;100067.34;4999795;28;20037;-79
2022/11/04 00:39:38;;;;;;;0.08;0.08;;;;;;;8.41;100.00;100083.25;4973283;28;20060;-75
2022/11/04 00:42:03;;;;;;;0.10;0.10;;;;;;;8.38;100.00;100077.31;4992733;28;20025;-80
2022/11/04 00:44:28;;;;;;;0.10;0.10;;;;;;;8.40;100.00;100089.59;4989357;28;20276;-77
2022/11/04 00:46:54;;;;;;;0.10;0.10;;;;;;;8.32;100.00;100067.97;4992240;28;20064;-76
2022/11/04 00:49:19;;;;;;;0.00;0.00;;;;;;;8.20;100.00;100071.63;5008989;28;20038;-76
2022/11/04 00:51:44;;;;;;;0.10;0.10;;;;;;;8.13;100.00;100081.97;4993562;28;20057;-78
2022/11/04 00:54:10;;;;;;;0.10;0.10;;;;;;;8.13;100.00;100094.47;5006630;28;20025;-78
2022/11/04 00:56:39;;;;;;;0.10;0.10;;;;;;;8.09;100.00;100107.25;4981389;28;20036;-78
2022/11/04 00:59:04;;;;;;;0.00;0.00;;;;;;;8.04;100.00;100077.34;4994327;28;20120;-80
2022/11/04 01:01:30;;;;;;;0.10;0.10;;;;;;;7.93;100.00;100083.53;4991741;28;20509;-78
2022/11/04 01:03:55;;;;;;;0.10;0.10;;;;;;;8.00;100.00;100100.81;4994668;28;20752;-80
2022/11/04 01:06:22;;;;;;;0.10;0.10;;;;;;;7.81;100.00;100086.19;4987215;28;20030;-77
2022/11/04 01:08:48;;;;;;;0.00;0.00;;;;;;;7.85;100.00;100099.31;4985287;28;20025;-81
2022/11/04 01:11:14;;;;;;;0.10;0.10;;;;;;;7.64;100.00;100094.69;4988326;28;20477;-77
2022/11/04 01:13:40;;;;;;;0.10;0.10;;;;;;;7.77;100.00;100113.28;4982881;28;20115;-79
2022/11/04 01:16:08;;;;;;;0.10;0.10;;;;;;;7.65;100.00;100083.03;4969431;28;20416;-80
2022/11/04 01:18:34;;;;;;;0.00;0.00;;;;;;;7.65;100.00;100104.41;4999736;28;20033;-82
2022/11/04 01:21:00;;;;;;;0.10;0.10;;;;;;;7.70;100.00;100112.06;4986068;28;20037;-76
2022/11/04 01:23:26;;;;;;;0.10;0.10;;;;;;;7.63;100.00;100091.19;5001543;28;20036;-80
2022/11/04 01:25:51;;;;;;;0.10;0.10;;;;;;;7.69;100.00;100110.34;5004222;28;20026;-76
2022/11/04 01:28:16;;;;;;;0.00;0.00;;;;;;;7.73;100.00;100096.66;5000788;28;20149;-79
2022/11/04 01:30:41;;;;;;;0.10;0.10;;;;;;;7.75;100.00;100113.44;5004962;28;20484;-80
2022/11/04 01:33:07;;;;;;;0.10;0.10;;;;;;;7.79;100.00;100106.00;4999242;28;20029;-74
2022/11/04 01:35:32;;;;;;;0.10;0.10;;;;;;;7.92;100.00;100124.59;5003757;28;20079;-76
2022/11/04 01:37:57;;;;;;;0.10;0.10;;;;;;;7.83;100.00;100118.16;5004474;28;20067;-80
2022/11/04 01:40:23;;;;;;;0.10;0.10;;;;;;;7.95;100.00;100125.22;5002668;28;20034;-75
2022/11/04 01:42:48;;;;;;;0.10;0.10;;;;;;;7.98;100.00;100125.94;4983514;28;20044;-77
2022/11/04 01:45:15;;;;;;;0.10;0.10;;;;;;;8.23;100.00;100132.91;5006009;28;20092;-81
2022/11/04 01:47:43;;;;;;;0.10;0.10;;;;;;;8.19;100.00;100134.09;5000690;28;20075;-79
2022/11/04 01:50:16;;;;;;;0.10;0.10;;;;;;;8.27;100.00;100145.06;5005398;28;20053;-85
2022/11/04 01:52:50;;;;;;;0.10;0.10;;;;;;;8.26;100.00;100108.59;4996499;28;20037;-78
2022/11/04 01:55:19;;;;;;;0.10;0.10;;;;;;;8.46;100.00;100139.09;5003429;28;20088;-77
2022/11/04 01:57:46;;;;;;;0.10;0.10;;;;;;;8.47;100.00;100145.28;4965607;28;20038;-76
2022/11/04 02:00:12;;;;;;;0.10;0.10;;;;;;;8.40;100.00;100144.94;5002474;28;20884;-81
2022/11/04 02:02:45;;;;;;;0.10;0.10;;;;;;;8.37;100.00;100139.81;4984150;28;20040;-75
2022/11/04 02:05:10;;;;;;;0.05;0.05;;;;;;;8.46;100.00;100163.16;4986251;28;20052;-74
2022/11/04 02:07:36;;;;;;;0.10;0.10;;;;;;;8.38;100.00;100153.06;4985521;28;20450;-74
2022/11/04 02:10:02;;;;;;;0.10;0.10;;;;;;;8.34;100.00;100148.09;4971989;28;20489;-77
2022/11/04 02:15:11;;;;;;;0.10;0.10;;;;;;;8.44;100.00;100150.88;4986383;28;20044;-78
2022/11/04 02:18:04;;;;;;;0.10;0.10;;;;;;;8.49;100.00;100160.25;4986679;28;20030;-82
2022/11/04 02:21:00;;;;;;;0.10;0.10;;;;;;;8.34;100.00;100140.06;4986636;28;20022;-83
2022/11/04 02:23:33;;;;;;;0.10;0.10;;;;;;;8.37;100.00;100167.41;4990193;28;20502;-77
2022/11/04 02:26:25;;;;;;;0.10;0.10;;;;;;;8.30;100.00;100144.81;5003607;28;20141;-78
2022/11/04 02:29:15;;;;;;;0.00;0.00;;;;;;;8.30;100.00;100171.56;5000920;28;20058;-80
2022/11/04 02:32:03;;;;;;;0.10;0.10;;;;;;;8.23;100.00;100171.16;4984073;28;20030;-77
2022/11/04 02:34:47;;;;;;;0.10;0.10;;;;;;;8.18;100.00;100164.50;5001747;28;20037;-84
2022/11/04 02:37:29;;;;;;;0.10;0.10;;;;;;;7.99;100.00;100141.88;4985458;28;20149;-77
2022/11/04 02:39:59;;;;;;;0.10;0.10;;;;;;;7.94;100.00;100160.09;5001144;28;20037;-78
2022/11/04 02:42:38;;;;;;;0.10;0.10;;;;;;;8.05;100.00;100176.16;5004568;28;20033;-77
2022/11/04 02:45:17;;;;;;;0.10;0.10;;;;;;;8.03;100.00;100185.25;4987622;28;20031;-79
2022/11/04 02:47:44;;;;;;;0.10;0.10;;;;;;;8.03;100.00;100183.44;4990645;28;20060;-77
2022/11/04 02:50:19;;;;;;;0.00;0.00;;;;;;;8.00;100.00;100185.50;4984970;28;20164;-77
2022/11/04 02:52:58;;;;;;;0.10;0.10;;;;;;;7.92;100.00;100178.94;5000143;28;20034;-78
2022/11/04 02:55:27;;;;;;;0.10;0.10;;;;;;;7.71;100.00;100159.19;4982293;28;20038;-79
2022/11/04 02:57:55;;;;;;;0.10;0.10;;;;;;;7.79;100.00;100188.84;4987151;28;20018;-76
2022/11/04 03:00:21;;;;;;;0.10;0.10;;;;;;;7.59;100.00;100177.88;4983964;28;20025;-82
2022/11/04 03:02:52;;;;;;;0.10;0.10;;;;;;;7.73;100.00;100202.69;5001112;28;20371;-81
2022/11/04 03:05:21;;;;;;;0.10;0.10;;;;;;;7.73;100.00;100213.38;4983720;28;20061;-76
2022/11/04 03:07:49;;;;;;;0.10;0.10;;;;;;;7.65;100.00;100206.81;4971037;28;20112;-75
2022/11/04 03:10:28;;;;;;;0.10;0.10;;;;;;;7.44;100.00;100187.03;4985035;28;20212;-75
2022/11/04 03:12:57;;;;;;;0.10;0.10;;;;;;;7.58;100.00;100216.25;4984208;28;20417;-77
2022/11/04 03:15:28;;;;;;;0.10;0.10;;;;;;;7.59;100.00;100201.91;4982912;28;20030;-79
2022/11/04 03:18:07;;;;;;;0.10;0.10;;;;;;;7.52;100.00;100210.53;4969210;28;20099;-75
2022/11/04 03:20:35;;;;;;;0.10;0.10;;;;;;;7.66;100.00;100223.69;5000736;28;20033;-80
2022/11/04 03:23:00;;;;;;;0.10;0.10;;;;;;;7.50;100.00;100210.63;4996128;28;20029;-77
2022/11/04 03:25:32;;;;;;;0.10;0.10;;;;;;;7.61;100.00;100213.34;4985224;28;20029;-79
2022/11/04 03:28:35;;;;;;;0.10;0.10;;;;;;;7.60;100.00;100224.13;4990015;28;20080;-77
2022/11/04 03:31:03;;;;;;;0.10;0.10;;;;;;;7.57;100.00;100201.19;5011928;28;20106;-78
2022/11/04 03:33:39;;;;;;;0.10;0.10;;;;;;;7.41;100.00;100220.19;5008479;28;20036;-75
2022/11/04 03:36:05;;;;;;;0.10;0.10;;;;;;;7.35;100.00;100220.63;5009572;28;20137;-76
2022/11/04 03:38:30;;;;;;;0.10;0.10;;;;;;;7.22;100.00;100209.16;5008431;28;20030;-77
2022/11/04 03:40:56;;;;;;;0.10;0.10;;;;;;;7.24;100.00;100186.72;5015153;28;20065;-78
2022/11/04 03:43:24;;;;;;;0.10;0.10;;;;;;;7.23;100.00;100230.41;5008533;28;20080;-76
2022/11/04 03:45:50;;;;;;;0.10;0.10;;;;;;;7.23;100.00;100225.06;4995944;28;20549;-76
2022/11/04 03:48:15;;;;;;;0.10;0.10;;;;;;;7.23;100.00;100221.56;4990743;28;20239;-76
2022/11/04 03:50:49;;;;;;;0.10;0.10;;;;;;;7.15;100.00;100222.13;4992287;28;20061;-79
2022/11/04 03:53:16;;;;;;;;;;;;;;;7.16;100.00;100243.34;4993939;28;20034;-82
2022/11/04 03:55:50;;;;;;;0.10;0.10;;;;;;;6.86;100.00;100236.59;4991334;28;20008;-77
2022/11/04 03:58:31;;;;;;;0.10;0.10;;;;;;;6.68;100.00;100220.09;5008570;28;20033;-78
2022/11/04 04:01:20;;;;;;;0.10;0.10;;;;;;;6.80;100.00;100253.03;4990306;28;20029;-79
2022/11/04 04:03:51;;;;;;;0.10;0.10;;;;;;;6.74;100.00;100237.50;5005024;28;20382;-81
2022/11/04 04:06:19;;;;;;;0.10;0.10;;;;;;;6.72;100.00;100237.59;4990435;28;20026;-76
2022/11/04 04:08:51;;;;;;;0.13;0.13;;;;;;;6.81;100.00;100249.41;5005492;28;20072;-79
2022/11/04 04:11:22;;;;;;;0.10;0.10;;;;;;;6.81;100.00;100241.41;5007256;28;20026;-78
2022/11/04 04:13:53;;;;;;;0.10;0.10;;;;;;;6.90;100.00;100248.75;4976397;28;20036;-78
2022/11/04 04:16:42;;;;;;;0.10;0.10;;;;;;;6.77;100.00;100237.25;5007363;28;20022;-77
2022/11/04 04:19:12;;;;;;;0.10;0.10;;;;;;;6.85;100.00;100258.91;4993439;28;20022;-79
2022/11/04 04:21:51;;;;;;;0.10;0.10;;;;;;;6.78;100.00;100241.63;4989872;28;20027;-78
2022/11/04 04:29:47;;;;;;;0.10;0.10;;;;;;;6.72;100.00;100244.75;5003959;28;20449;-78
2022/11/04 04:32:13;;;;;;;0.10;0.10;;;;;;;6.96;100.00;100275.97;5004783;28;20580;-77
2022/11/04 04:34:39;;;;;;;0.10;0.10;;;;;;;6.81;100.00;100264.59;4991565;28;20125;-77
2022/11/04 04:37:15;;;;;;;0.10;0.10;;;;;;;6.61;100.00;100272.19;4986521;28;20042;-78
2022/11/04 04:45:35;;;;;;;0.10;0.10;;;;;;;6.03;100.00;100234.41;4973238;28;20437;-78
2022/11/04 04:48:01;;;;;;;0.10;0.10;;;;;;;6.23;100.00;100273.03;4972085;28;20099;-80
2022/11/04 04:50:29;;;;;;;0.10;0.10;;;;;;;6.26;100.00;100278.16;5005017;28;20029;-78
2022/11/04 04:52:56;;;;;;;0.10;0.10;;;;;;;6.17;100.00;100268.13;5010204;28;20047;-79
2022/11/04 04:55:22;;;;;;;0.10;0.10;;;;;;;6.14;100.00;100263.88;4998195;28;20033;-80
2022/11/04 04:57:47;;;;;;;0.10;0.10;;;;;;;6.19;100.00;100276.88;4997284;28;20041;-79
2022/11/04 05:00:15;;;;;;;0.10;0.10;;;;;;;6.16;100.00;100277.94;5013389;28;20026;-79
2022/11/04 05:02:40;;;;;;;0.10;0.10;;;;;;;6.12;100.00;100287.94;5004374;28;20729;-78
2022/11/04 05:05:06;;;;;;;0.10;0.10;;;;;;;6.02;100.00;100278.88;5008279;28;20278;-80
2022/11/04 05:07:32;;;;;;;0.10;0.10;;;;;;;5.96;100.00;100265.94;5005177;28;20026;-79
2022/11/04 05:09:57;;;;;;;0.10;0.10;;;;;;;5.75;100.00;100265.56;5009408;28;20052;-79
2022/11/04 05:12:23;;;;;;;0.10;0.10;;;;;;;5.72;100.00;100279.94;4983879;28;20072;-78
2022/11/04 05:14:49;;;;;;;0.10;0.10;;;;;;;5.63;100.00;100262.78;4970968;28;20029;-82
2022/11/04 05:17:14;;;;;;;0.10;0.10;;;;;;;5.60;100.00;100262.97;4986387;28;20115;-78
2022/11/04 05:19:39;;;;;;;0.10;0.10;;;;;;;5.60;100.00;100262.97;4991413;28;20037;-77
2022/11/04 05:22:05;;;;;;;0.10;0.10;;;;;;;5.82;100.00;100282.84;4985871;28;20033;-79
2022/11/04 05:24:30;;;;;;;0.13;0.13;;;;;;;5.84;100.00;100275.59;4987545;28;20042;-78
2022/11/04 05:26:55;;;;;;;0.10;0.10;;;;;;;5.90;100.00;100275.19;4985748;28;20068;-78
2022/11/04 05:29:21;;;;;;;0.10;0.10;;;;;;;5.75;100.00;100270.88;4986540;28;20034;-77
2022/11/04 05:31:46;;;;;;;0.17;0.17;;;;;;;5.84;100.00;100289.75;4985174;28;20064;-78
2022/11/04 05:34:11;;;;;;;0.13;0.13;;;;;;;5.95;100.00;100318.38;4974277;28;20142;-77
2022/11/04 05:36:37;;;;;;;0.10;0.10;;;;;;;5.81;100.00;100298.00;4990419;28;20026;-78
2022/11/04 05:39:03;;;;;;;0.10;0.10;;;;;;;5.95;100.00;100301.53;4993304;28;20113;-78
2022/11/04 05:41:28;;;;;;;0.10;0.10;;;;;;;5.83;100.00;100292.53;4986581;28;20533;-79
2022/11/04 05:43:58;;;;;;;0.10;0.10;;;;;;;6.13;100.00;100318.97;5004056;28;20037;-80
2022/11/04 05:46:24;;;;;;;0.10;0.10;;;;;;;6.22;100.00;100327.31;5005077;28;20021;-78
2022/11/04 05:48:49;;;;;;;0.10;0.10;;;;;;;6.15;100.00;100302.88;4990637;28;20041;-79
2022/11/04 05:51:17;;;;;;;0.10;0.10;;;;;;;6.27;100.00;100311.88;4973111;28;20104;-77
2022/11/04 05:53:43;;;;;;;0.20;0.20;;;;;;;6.32;100.00;100306.19;4988981;28;20112;-75
2022/11/04 05:56:08;;;;;;;0.10;0.10;;;;;;;6.40;100.00;100322.53;5006316;28;20113;-75
2022/11/04 05:58:33;;;;;;;0.10;0.10;;;;;;;6.58;100.00;100341.75;5002464;28;20038;-76
2022/11/04 06:01:37;;;;;;;0.10;0.10;;;;;;;6.61;100.00;100346.88;4986914;28;20024;-79
2022/11/04 06:04:04;;;;;;;0.10;0.10;;;;;;;6.69;100.00;100344.53;4988352;28;20049;-75
2022/11/04 06:06:31;;;;;;;0.20;0.20;;;;;;;6.70;100.00;100337.38;4984296;28;20030;-75
2022/11/04 06:08:57;;;;;;;0.13;0.13;;;;;;;6.55;100.00;100342.81;5001804;28;20137;-77
2022/11/04 06:11:23;;;;;;;0.10;0.10;;;;;;;6.67;100.00;100361.59;4986363;28;20105;-78
2022/11/04 06:13:48;;;;;;;0.17;0.17;;;;;;;6.58;100.00;100352.44;5005206;28;20037;-76
2022/11/04 06:16:14;;;;;;;0.10;0.10;;;;;;;6.51;100.00;100327.97;4987054;28;20076;-77
2022/11/04 06:18:39;;;;;;;0.20;0.20;;;;;;;6.59;100.00;100346.97;5000545;28;20061;-77
2022/11/04 06:21:09;;;;;;;0.10;0.10;;;;;;;6.54;100.00;100338.44;4987024;28;20030;-76
2022/11/04 06:23:34;;;;;;;0.10;0.10;;;;;;;6.59;100.00;100351.47;5003790;28;20124;-75
2022/11/04 06:26:00;;;;;;;0.10;0.10;;;;;;;6.51;100.00;100357.31;5003377;28;20485;-75
2022/11/04 06:28:25;;;;;;;0.10;0.10;;;;;;;6.34;100.00;100345.16;4996022;28;20459;-75
2022/11/04 06:30:50;;;;;;;0.10;0.10;;;;;;;6.35;100.00;100362.00;5003763;28;20030;-77
2022/11/04 06:33:16;;;;;;;0.10;0.10;;;;;;;6.26;100.00;100363.47;5000293;28;20066;-74
2022/11/04 06:35:41;;;;;;;0.17;0.17;;;;;;;6.38;100.00;100369.78;5008480;28;20030;-77
2022/11/04 06:38:06;;;;;;;0.10;0.10;;;;;;;6.25;100.00;100346.59;5002345;28;20044;-76
2022/11/04 06:40:31;;;;;;;0.10;0.10;;;;;;;6.44;100.00;100364.03;4986525;28;20033;-77
2022/11/04 06:42:57;;;;;;;0.10;0.10;;;;;;;6.60;100.00;100383.38;4980507;28;20509;-76
2022/11/04 06:45:22;;;;;;;0.10;0.10;;;;;;;6.62;100.00;100374.41;4967378;28;20128;-77
2022/11/04 06:47:47;;;;;;;0.10;0.10;;;;;;;6.76;100.00;100382.28;4999293;28;20033;-76
2022/11/04 06:50:13;;;;;;;0.10;0.10;;;;;;;6.85;100.00;100388.84;4984164;28;20474;-77
2022/11/04 06:52:38;;;;;;;0.10;0.10;;;;;;;6.89;100.00;100390.31;5000930;28;20141;-73
2022/11/04 06:55:04;;;;;;;0.10;0.10;;;;;;;6.79;100.00;100373.25;4982445;28;20044;-76
2022/11/04 06:57:30;;;;;;;0.10;0.10;;;;;;;6.83;100.00;100390.75;4985807;28;20041;-77
2022/11/04 06:59:55;;;;;;;0.10;0.10;;;;;;;6.86;100.00;100401.22;4980420;28;20225;-70
2022/11/04 07:02:20;;;;;;;0.10;0.10;;;;;;;6.82;100.00;100395.22;4986404;28;20030;-74
2022/11/04 07:04:46;;;;;;;0.10;0.10;;;;;;;6.66;100.00;100375.91;4985356;28;20069;-74
2022/11/04 07:07:11;;;;;;;0.10;0.10;;;;;;;6.77;100.00;100392.00;4989386;28;20041;-78
2022/11/04 07:09:37;;;;;;;0.10;0.10;;;;;;;6.55;100.00;100365.97;4987064;28;20784;-73
2022/11/04 07:12:02;;;;;;;0.10;0.10;;;;;;;6.58;100.00;100381.78;4989176;28;20091;-72
2022/11/04 07:14:28;;;;;;;0.10;0.10;;;;;;;6.63;100.00;100392.13;4986172;28;20636;-74
2022/11/04 07:16:53;;;;;;;0.10;0.10;;;;;;;6.86;100.00;100417.22;4984089;28;20026;-79
2022/11/04 07:19:18;;;;;;;0.10;0.10;;;;;;;6.71;100.00;100390.63;4982882;28;20053;-79
2022/11/04 07:21:44;;;;;;;0.10;0.10;;;;;;;6.90;100.00;100429.38;4979743;28;20472;-79
2022/11/04 07:24:09;;;;;;;0.10;0.10;;;;;;;7.03;100.00;100424.03;4991357;28;20045;-80
2022/11/04 07:26:34;;;;;;;0.10;0.10;;;;;;;6.95;100.00;100413.91;4990632;28;20038;-79
2022/11/04 07:29:00;;;;;;;0.10;0.10;;;;;;;7.09;100.00;100434.28;4972594;28;20057;-80
2022/11/04 07:31:26;;;;;;;0.10;0.10;;;;;;;7.22;100.00;100439.63;4987843;28;20254;-79
2022/11/04 07:33:52;;;;;;;0.10;0.10;;;;;;;7.29;100.00;100442.72;4981643;28;20029;-76
2022/11/04 07:36:18;;;;;;;0.10;0.10;;;;;;;7.35;100.00;100439.63;4998572;28;20041;-77
2022/11/04 07:38:44;;;;;;;0.10;0.10;;;;;;;7.35;100.00;100436.94;4984651;28;20037;-77
2022/11/04 07:41:09;;;;;;;0.20;0.20;;;;;;;7.35;100.00;100428.94;4985853;28;20044;-77
2022/11/04 07:43:34;;;;;;;0.10;0.10;;;;;;;7.40;100.00;100426.81;4969433;28;20060;-76
2022/11/04 07:46:05;;;;;;;0.10;0.10;;;;;;;7.57;100.00;100433.63;4986996;28;20097;-77
2022/11/04 07:48:30;;;;;;;0.13;0.13;;;;;;;7.44;100.00;100408.72;4985495;28;20037;-75
2022/11/04 07:50:57;;;;;;;0.10;0.10;;;;;;;7.41;100.00;100412.47;4998112;28;20030;-77
2022/11/04 07:53:23;;;;;;;0.10;0.10;;;;;;;7.45;100.00;100410.44;4965336;28;20018;-80
2022/11/04 07:55:49;;;;;;;0.10;0.10;;;;;;;7.44;100.00;100417.59;4986173;28;20030;-77
2022/11/04 07:58:16;;;;;;;0.10;0.10;;;;;;;7.59;100.00;100436.16;4984103;28;20118;-78
2022/11/04 08:00:41;;;;;;;0.10;0.10;;;;;;;7.60;100.00;100421.84;4999361;28;20478;-78
2022/11/04 08:03:06;;;;;;;0.15;0.15;;;;;;;7.61;100.00;100434.25;4980545;28;20112;-77
2022/11/04 08:05:31;;;;;;;0.10;0.10;;;;;;;7.81;100.00;100448.84;4981214;28;20030;-79
2022/11/04 08:07:57;;;;;;;0.10;0.10;;;;;;;7.79;100.00;100432.06;4969268;28;20037;-77
2022/11/04 08:10:22;;;;;;;0.05;0.05;;;;;;;7.80;100.00;100434.63;4999097;28;20140;-74
2022/11/04 08:12:50;;;;;;;0.10;0.10;;;;;;;7.69;100.00;100420.31;5003096;28;20018;-80
2022/11/04 08:15:15;;;;;;;0.10;0.10;;;;;;;7.64;100.00;100442.03;4991312;28;20037;-75
2022/11/04 08:17:40;;;;;;;0.10;0.10;;;;;;;7.59;100.00;100447.72;4990907;28;20401;-76
2022/11/04 08:20:06;;;;;;;0.20;0.20;;;;;;;7.54;100.00;100454.38;4992655;28;20072;-75
2022/11/04 08:22:33;;;;;;;0.10;0.10;;;;;;;7.61;100.00;100469.84;5003509;28;20442;-77
2022/11/04 08:24:58;;;;;;;0.20;0.20;;;;;;;7.52;100.00;100451.78;4983959;28;20518;-79
2022/11/04 08:27:23;;;;;;;0.10;0.10;;;;;;;7.54;100.00;100455.22;5010576;28;20076;-77
2022/11/04 08:29:49;;;;;;;0.10;0.10;;;;;;;7.67;100.00;100468.53;4974462;28;20060;-77
2022/11/04 08:32:14;;;;;;;0.10;0.10;;;;;;;7.69;100.00;100463.94;4988072;28;20399;-79
2022/11/04 08:34:40;;;;;;;0.10;0.10;;;;;;;7.78;100.00;100468.63;4993270;28;20060;-79
2022/11/04 08:37:06;;;;;;;0.10;0.10;;;;;;;7.82;100.00;100469.25;4987885;28;20038;-79
2022/11/04 08:39:31;;;;;;;0.10;0.10;;;;;;;7.82;100.00;100463.91;4967058;28;20033;-80
2022/11/04 08:41:56;;;;;;;0.10;0.10;;;;;;;7.86;100.00;100484.13;4970896;28;20056;-76
2022/11/04 08:44:22;;;;;;;0.10;0.10;;;;;;;7.85;100.00;100471.72;4986825;28;20397;-79
2022/11/04 08:46:48;;;;;;;0.10;0.10;;;;;;;8.02;100.00;100478.50;4984979;28;20148;-78
2022/11/04 08:49:13;;;;;;;0.10;0.10;;;;;;;7.91;100.00;100490.00;4985521;28;20033;-79
2022/11/04 08:51:42;;;;;;;0.10;0.10;;;;;;;7.90;100.00;100495.44;4987439;28;20339;-78
2022/11/04 08:54:08;;;;;;;0.10;0.10;;;;;;;8.05;100.00;100517.53;4999310;28;20079;-76
2022/11/04 08:56:35;;;;;;;0.10;0.10;;;;;;;8.22;100.00;100524.31;5002549;28;20033;-75
2022/11/04 08:59:01;;;;;;;0.10;0.10;;;;;;;8.25;100.00;100527.63;4986164;28;20580;-76
2022/11/04 09:01:28;;;;;;;0.10;0.10;;;;;;;8.47;100.00;100520.72;4997375;28;20026;-84
2022/11/04 09:03:53;;;;;;;0.25;0.25;;;;;;;8.60;100.00;100542.09;4983355;28;20034;-82
2022/11/04 09:06:24;;;;;;;0.20;0.20;;;;;;;8.63;100.00;100536.47;4973603;28;20092;-83
2022/11/04 09:08:51;;;;;;;0.10;0.10;;;;;;;8.67;100.00;100539.81;4996087;28;20710;-82
2022/11/04 09:11:17;;;;;;;0.20;0.20;;;;;;;8.69;100.00;100511.09;4990775;28;20030;-83
2022/11/04 09:13:43;;;;;;;0.20;0.20;;;;;;;9.00;100.00;100539.09;5000115;28;20080;-85
2022/11/04 09:16:12;;;;;;;0.10;0.10;;;;;;;9.10;100.00;100533.03;4992860;28;20057;-82
2022/11/04 09:18:37;;;;;;;0.10;0.10;;;;;;;9.13;100.00;100517.56;4994914;28;20446;-80
2022/11/04 09:21:04;;;;;;;0.10;0.10;;;;;;;9.28;100.00;100530.72;4975743;28;20032;-79
2022/11/04 09:23:29;;;;;;;0.10;0.10;;;;;;;9.14;100.00;100511.25;4990657;28;20494;-77
2022/11/04 09:25:57;;;;;;;0.20;0.20;;;;;;;9.32;100.00;100528.69;4988631;28;20165;-76
2022/11/04 09:28:23;;;;;;;0.10;0.10;;;;;;;9.59;100.00;100536.38;5002562;28;20029;-77
2022/11/04 09:30:48;;;;;;;0.15;0.15;;;;;;;9.92;100.00;100549.94;5008349;28;20088;-78
2022/11/04 09:33:13;;;;;;;0.10;0.10;;;;;;;9.95;100.00;100533.59;4976441;28;20037;-78
2022/11/04 09:35:38;;;;;;;0.20;0.20;;;;;;;10.15;100.00;100543.59;5012373;28;20140;-79
2022/11/04 09:38:04;;;;;;;0.20;0.20;;;;;;;10.35;100.00;100566.09;4991745;28;20038;-78
2022/11/04 09:40:33;;;;;;;0.10;0.10;;;;;;;10.35;100.00;100560.72;4989933;28;20089;-80
2022/11/04 09:43:24;;;;;;;0.10;0.10;;;;;;;10.61;100.00;100568.50;4973708;28;20120;-82
2022/11/04 09:45:49;;;;;;;0.10;0.10;;;;;;;10.71;100.00;100557.00;4981501;28;20737;-82
2022/11/04 09:48:28;;;;;;;0.13;0.10;;;;;;;10.84;100.00;100554.16;4989719;28;20034;-82
2022/11/04 09:50:56;;;;;;;0.10;0.10;;;;;;;11.23;100.00;100549.94;4986145;28;20037;-80
2022/11/04 09:53:26;;;;;;;0.20;0.20;;;;;;;11.79;100.00;100581.94;4983838;28;20021;-77
2022/11/04 09:55:56;;;;;;;0.10;0.10;;;;;;;11.90;100.00;100592.63;4991325;28;20029;-78
2022/11/04 09:58:21;;;;;;;0.10;0.10;;;;;;;11.79;100.00;100576.56;4982844;28;20036;-80
2022/11/04 10:00:55;;;;;;;0.10;0.10;;;;;;;11.83;100.00;100586.94;4972421;28;20033;-79
2022/11/04 10:03:41;;;;;;;0.10;0.10;;;;;;;11.72;100.00;100600.47;4983389;28;20030;-79
2022/11/04 10:06:24;;;;;;;0.10;0.10;;;;;;;11.79;100.00;100604.31;4989694;28;20050;-79
2022/11/04 10:09:03;;;;;;;0.10;0.10;;;;;;;12.14;100.00;100588.78;5006601;28;20485;-80
2022/11/04 10:11:59;;;;;;;0.10;0.10;;;;;;;12.38;100.00;100609.13;4973764;28;20038;-77
2022/11/04 10:14:36;;;;;;;0.10;0.10;;;;;;;12.33;100.00;100603.28;5006077;28;20034;-77
2022/11/04 10:17:43;;;;;;;0.10;0.10;;;;;;;12.75;100.00;100595.88;5002733;28;20561;-79
2022/11/04 10:20:22;;;;;;;0.10;0.10;;;;;;;13.08;100.00;100600.16;4894474;29;20710;-78
2022/11/04 10:22:55;;;;;;;0.10;0.10;;;;;;;13.46;100.00;100609.25;4988541;28;20557;-80
2022/11/04 10:25:22;;;;;;;0.10;0.10;;;;;;;13.37;100.00;100592.06;4984973;28;20025;-78
2022/11/04 10:27:48;;;;;;;0.10;0.10;;;;;;;13.31;100.00;100598.88;5002224;28;20025;-73
2022/11/04 10:30:15;;;;;;;0.10;0.10;;;;;;;13.12;100.00;100621.28;4987049;28;20026;-73
2022/11/04 10:33:05;;;;;;;0.10;0.10;;;;;;;12.88;100.00;100610.94;5001528;28;20030;-72
2022/11/04 10:35:38;;;;;;;0.20;0.20;;;;;;;12.79;100.00;100617.16;4982499;28;20057;-77
2022/11/04 10:38:17;;;;;;;0.10;0.10;;;;;;;12.53;100.00;100620.38;5001668;28;20026;-78
2022/11/04 10:40:47;;;;;;;0.10;0.10;;;;;;;12.77;100.00;100638.88;4985591;28;20291;-75
2022/11/04 10:43:16;;;;;;;0.10;0.10;;;;;;;12.77;100.00;100632.59;4982667;28;20478;-78
2022/11/04 10:46:00;;;;;;;0.10;0.10;;;;;;;12.74;100.00;100614.91;4989958;28;20103;-81
2022/11/04 10:48:39;;;;;;;0.10;0.10;;;;;;;12.82;100.00;100611.50;4980185;28;20034;-77
2022/11/04 10:51:04;;;;;;;0.10;0.10;;;;;;;12.84;100.00;100614.91;4983538;28;20080;-80
2022/11/04 10:53:31;;;;;;;0.10;0.10;;;;;;;13.13;100.00;100633.78;4987857;28;20026;-78
2022/11/04 10:56:11;;;;;;;0.10;0.10;;;;;;;13.23;100.00;100632.94;4999016;28;20121;-77
2022/11/04 10:58:46;;;;;;;0.10;0.10;;;;;;;13.01;100.00;100613.38;5002588;28;20080;-79
2022/11/04 11:01:28;;;;;;;0.10;0.10;;;;;;;13.32;100.00;100624.84;4967324;28;20053;-79
2022/11/04 11:03:54;;;;;;;0.10;0.10;;;;;;;13.31;100.00;100635.78;4997420;28;20069;-73
2022/11/04 11:06:33;;;;;;;0.10;0.10;;;;;;;13.24;100.00;100622.03;4998651;28;20381;-74
2022/11/04 11:09:13;;;;;;;0.10;0.10;;;;;;;13.38;100.00;100609.09;4997120;28;20038;-75
2022/11/04 11:11:44;;;;;;;0.10;0.10;;;;;;;13.72;100.00;100628.38;4999467;28;20141;-76
2022/11/04 11:14:17;;;;;;;0.10;0.10;;;;;;;13.73;99.56;100630.06;4982082;28;20112;-75
2022/11/04 11:16:44;;;;;;;0.05;0.05;;;;;;;13.82;100.00;100624.81;4970923;28;20030;-75
2022/11/04 11:19:18;;;;;;;0.10;0.10;;;;;;;13.60;97.40;100632.25;4988039;28;20030;-80
2022/11/04 11:21:52;;;;;;;0.10;0.10;;;;;;;13.51;100.00;100615.06;5002796;28;20041;-76
2022/11/04 11:24:23;;;;;;;0.10;0.10;;;;;;;13.67;100.00;100637.91;4979611;28;20030;-75
2022/11/04 11:26:51;;;;;;;0.10;0.10;;;;;;;13.86;100.00;100635.16;4983965;28;20083;-76
2022/11/04 11:29:39;;;;;;;0.10;0.10;;;;;;;14.12;96.90;100634.50;5000323;28;20492;-80
2022/11/04 11:32:05;;;;;;;0.05;0.05;;;;;;;14.43;98.93;100633.41;4985464;28;20025;-74
2022/11/04 11:34:32;;;;;;;0.08;0.08;;;;;;;14.67;100.00;100636.38;4986080;28;20451;-75
2022/11/04 11:36:58;;;;;;;0.08;0.08;;;;;;;14.81;98.55;100645.88;4969296;28;20470;-74
2022/11/04 11:39:26;;;;;;;0.10;0.10;;;;;;;14.89;100.00;100645.09;4982579;28;20446;-78
2022/11/04 11:42:01;;;;;;;0.00;0.00;;;;;;;14.57;94.73;100632.03;4982653;28;20037;-77
2022/11/04 11:44:33;;;;;;;0.10;0.10;;;;;;;14.74;95.43;100623.16;4998231;28;20096;-80
2022/11/04 11:47:04;;;;;;;0.10;0.10;;;;;;;14.76;97.50;100631.09;5005387;28;20026;-77
2022/11/04 11:49:34;;;;;;;0.10;0.10;;;;;;;15.19;99.79;100648.44;5009645;28;20453;-77
2022/11/04 11:52:24;;;;;;;0.10;0.10;;;;;;;15.47;93.37;100651.06;4993683;28;20069;-76
2022/11/04 11:54:52;;;;;;;0.10;0.10;;;;;;;15.33;90.42;100649.75;5003749;28;20037;-77
2022/11/04 11:58:01;;;;;;;0.10;0.10;;;;;;;16.07;85.38;100654.03;4998090;28;20140;-75
2022/11/04 12:00:31;;;;;;;0.10;0.10;;;;;;;15.63;86.48;100625.94;4997410;28;20037;-74
2022/11/04 12:03:06;;;;;;;0.10;0.10;;;;;;;15.99;88.94;100647.56;5001382;28;20493;-75
2022/11/04 12:05:38;;;;;;;0.10;0.10;;;;;;;16.47;89.65;100644.41;4976766;28;20029;-75